createdAt,value
2017-05-13T00:01:22.482Z,2.72
2017-05-13T00:03:49.185Z,3.08
2017-05-13T00:06:15.885Z,3.90
2017-05-13T00:08:42.619Z,3.80
2017-05-13T00:11:09.352Z,2.90
2017-05-13T00:13:36.054Z,3.54
2017-05-13T00:16:02.946Z,3.38
2017-05-13T00:18:29.726Z,3.42
2017-05-13T00:20:56.410Z,3.20
2017-05-13T00:23:23.177Z,3.68
2017-05-13T00:25:49.892Z,3.36
2017-05-13T00:28:16.621Z,3.00
2017-05-13T00:30:43.523Z,3.46
2017-05-13T00:33:10.234Z,2.90
2017-05-13T00:35:36.939Z,2.98
2017-05-13T00:38:03.666Z,3.28
2017-05-13T00:40:30.363Z,3.08
2017-05-13T00:42:57.124Z,3.06
2017-05-13T00:45:23.829Z,3.08
2017-05-13T00:47:50.527Z,3.18
2017-05-13T00:50:17.982Z,2.72
2017-05-13T00:52:44.674Z,3.70
2017-05-13T00:55:11.404Z,2.66
2017-05-13T00:57:38.110Z,3.44
2017-05-13T01:00:04.904Z,2.94
2017-05-13T01:02:31.623Z,3.52
2017-05-13T01:04:58.338Z,2.80
2017-05-13T01:07:25.075Z,3.08
2017-05-13T01:09:51.783Z,2.76
2017-05-13T01:12:18.470Z,2.74
2017-05-13T01:14:45.184Z,2.98
2017-05-13T01:17:11.950Z,3.04
2017-05-13T01:19:38.668Z,3.10
2017-05-13T01:22:05.374Z,2.94
2017-05-13T01:24:32.054Z,3.12
2017-05-13T01:26:58.786Z,2.82
2017-05-13T01:29:32.349Z,2.78
2017-05-13T01:31:59.066Z,2.80
2017-05-13T01:34:25.762Z,2.74
2017-05-13T01:36:52.503Z,3.20
2017-05-13T01:39:19.219Z,2.78
2017-05-13T01:41:45.914Z,2.88
2017-05-13T01:44:12.665Z,3.32
2017-05-13T01:46:39.374Z,2.80
2017-05-13T01:49:06.066Z,3.08
2017-05-13T01:51:32.754Z,3.06
2017-05-13T01:53:59.433Z,2.92
2017-05-13T01:56:26.147Z,2.70
2017-05-13T01:58:52.843Z,3.22
2017-05-13T02:01:20.274Z,2.80
2017-05-13T02:03:46.970Z,2.58
2017-05-13T02:06:13.676Z,3.10
2017-05-13T02:08:40.419Z,2.80
2017-05-13T02:11:07.095Z,2.60
2017-05-13T02:13:33.790Z,2.72
2017-05-13T02:16:01.259Z,2.90
2017-05-13T02:18:27.962Z,2.88
2017-05-13T02:20:54.686Z,2.88
2017-05-13T02:23:21.385Z,2.96
2017-05-13T02:25:48.082Z,2.46
2017-05-13T02:28:14.774Z,2.96
2017-05-13T02:30:41.480Z,2.48
2017-05-13T02:33:08.922Z,2.62
2017-05-13T02:35:35.614Z,2.84
2017-05-13T02:38:02.322Z,3.08
2017-05-13T02:40:29.034Z,2.84
2017-05-13T02:42:55.726Z,2.66
2017-05-13T02:45:22.465Z,2.76
2017-05-13T02:47:49.155Z,3.08
2017-05-13T02:50:15.858Z,2.80
2017-05-13T02:52:42.567Z,2.68
2017-05-13T02:55:09.259Z,2.70
2017-05-13T02:57:35.991Z,2.92
2017-05-13T03:00:02.690Z,2.50
2017-05-13T03:02:29.385Z,2.76
2017-05-13T03:04:56.075Z,2.56
2017-05-13T03:07:22.750Z,2.52
2017-05-13T03:09:49.445Z,2.56
2017-05-13T03:12:16.127Z,3.24
2017-05-13T03:14:42.823Z,2.74
2017-05-13T03:17:09.543Z,2.28
2017-05-13T03:19:36.994Z,2.88
2017-05-13T03:22:04.443Z,2.86
2017-05-13T03:24:31.139Z,2.70
2017-05-13T03:26:57.838Z,2.74
2017-05-13T03:29:24.566Z,2.90
2017-05-13T03:31:51.262Z,2.48
2017-05-13T03:34:17.962Z,2.70
2017-05-13T03:36:44.662Z,3.10
2017-05-13T03:39:11.338Z,2.62
2017-05-13T03:41:38.046Z,2.70
2017-05-13T03:44:04.737Z,2.40
2017-05-13T03:46:31.435Z,2.40
2017-05-13T03:48:58.147Z,2.46
2017-05-13T03:51:24.835Z,2.40
2017-05-13T03:53:51.558Z,2.52
2017-05-13T03:56:18.258Z,2.42
2017-05-13T03:58:44.958Z,2.70
2017-05-13T04:01:11.823Z,2.22
2017-05-13T04:03:38.506Z,2.60
2017-05-13T04:06:05.217Z,2.74
2017-05-13T04:08:31.906Z,2.80
2017-05-13T04:10:59.418Z,2.14
2017-05-13T04:13:26.140Z,2.70
2017-05-13T04:15:52.839Z,2.50
2017-05-13T04:18:20.292Z,2.32
2017-05-13T04:20:47.750Z,2.64
2017-05-13T04:23:15.222Z,2.34
2017-05-13T04:25:41.927Z,2.66
2017-05-13T04:28:08.633Z,2.72
2017-05-13T04:30:35.338Z,3.02
2017-05-13T04:33:02.039Z,2.66
2017-05-13T04:35:28.746Z,2.32
2017-05-13T04:37:55.445Z,2.32
2017-05-13T04:40:22.901Z,2.56
2017-05-13T04:42:49.602Z,2.58
2017-05-13T04:45:16.330Z,2.20
2017-05-13T04:47:43.046Z,2.62
2017-05-13T04:50:09.747Z,2.50
2017-05-13T04:52:37.230Z,2.48
2017-05-13T04:55:03.923Z,2.70
2017-05-13T04:57:30.660Z,2.10
2017-05-13T04:59:57.354Z,2.50
2017-05-13T05:02:24.057Z,2.40
2017-05-13T05:04:50.766Z,2.16
2017-05-13T05:07:17.457Z,2.10
2017-05-13T05:09:44.155Z,2.06
2017-05-13T05:12:10.846Z,2.30
2017-05-13T05:14:37.577Z,2.48
2017-05-13T05:17:04.274Z,2.32
2017-05-13T05:19:30.966Z,2.60
2017-05-13T05:21:57.658Z,2.66
2017-05-13T05:24:24.346Z,2.10
2017-05-13T05:26:51.042Z,2.50
2017-05-13T05:29:17.803Z,2.32
2017-05-13T05:31:44.531Z,2.84
2017-05-13T05:34:11.961Z,2.42
2017-05-13T05:36:38.652Z,2.28
2017-05-13T05:39:05.351Z,2.30
2017-05-13T05:41:32.044Z,2.48
2017-05-13T05:43:58.754Z,2.54
2017-05-13T05:46:26.214Z,2.68
2017-05-13T05:48:53.686Z,2.14
2017-05-13T05:51:20.378Z,2.40
2017-05-13T05:53:47.066Z,2.14
2017-05-13T05:56:13.746Z,2.52
2017-05-13T05:58:40.450Z,2.06
2017-05-13T06:01:07.186Z,2.00
2017-05-13T06:03:33.863Z,1.88
2017-05-13T06:06:00.563Z,2.02
2017-05-13T06:08:27.302Z,2.12
2017-05-13T06:10:54.009Z,2.06
2017-05-13T06:13:20.730Z,1.66
2017-05-13T06:15:47.424Z,1.90
2017-05-13T06:18:14.123Z,1.82
2017-05-13T06:20:40.830Z,2.16
2017-05-13T06:23:07.559Z,2.24
2017-05-13T06:25:34.236Z,2.08
2017-05-13T06:28:00.922Z,2.08
2017-05-13T06:30:27.623Z,2.34
2017-05-13T06:32:54.318Z,2.26
2017-05-13T06:35:21.025Z,2.28
2017-05-13T06:37:47.708Z,2.40
2017-05-13T06:40:14.438Z,1.88
2017-05-13T06:42:41.159Z,2.18
2017-05-13T06:45:07.860Z,1.92
2017-05-13T06:47:35.306Z,1.86
2017-05-13T06:50:01.991Z,2.10
2017-05-13T06:52:28.674Z,1.82
2017-05-13T06:54:55.375Z,1.88
2017-05-13T06:57:22.074Z,2.00
2017-05-13T06:59:48.858Z,2.00
2017-05-13T07:02:15.585Z,2.12
2017-05-13T07:04:42.318Z,2.10
2017-05-13T07:07:09.046Z,2.00
2017-05-13T07:09:35.794Z,2.00
2017-05-13T07:12:02.518Z,2.02
2017-05-13T07:14:29.942Z,1.70
2017-05-13T07:16:56.639Z,2.40
2017-05-13T07:19:23.361Z,2.20
2017-05-13T07:21:50.061Z,1.98
2017-05-13T07:24:16.797Z,1.92
2017-05-13T07:26:43.497Z,1.78
2017-05-13T07:29:10.243Z,1.90
2017-05-13T07:31:36.984Z,2.08
2017-05-13T07:34:03.749Z,2.10
2017-05-13T07:36:30.475Z,1.74
2017-05-13T07:38:57.175Z,1.80
2017-05-13T07:41:24.614Z,1.94
2017-05-13T07:43:51.330Z,1.80
2017-05-13T07:46:18.018Z,1.88
2017-05-13T07:48:44.719Z,2.00
2017-05-13T07:51:11.482Z,1.90
2017-05-13T07:53:39.043Z,2.08
2017-05-13T07:56:05.873Z,1.86
2017-05-13T07:58:32.558Z,1.98
2017-05-13T08:00:59.268Z,1.84
2017-05-13T08:03:26.725Z,1.98
2017-05-13T08:05:54.178Z,1.74
2017-05-13T08:08:21.606Z,1.58
2017-05-13T08:10:48.289Z,2.50
2017-05-13T08:13:14.994Z,1.86
2017-05-13T08:15:41.693Z,1.92
2017-05-13T08:18:08.575Z,2.10
2017-05-13T08:20:35.254Z,2.02
2017-05-13T08:23:01.987Z,2.46
2017-05-13T08:25:28.692Z,2.48
2017-05-13T08:27:55.391Z,1.90
2017-05-13T08:30:22.098Z,2.14
2017-05-13T08:32:48.802Z,2.36
2017-05-13T08:35:15.599Z,2.56
2017-05-13T08:37:42.316Z,2.14
2017-05-13T08:40:09.015Z,2.48
2017-05-13T08:42:35.722Z,2.12
2017-05-13T08:45:02.548Z,2.42
2017-05-13T08:47:29.278Z,2.68
2017-05-13T08:49:55.986Z,2.40
2017-05-13T08:52:22.677Z,2.20
2017-05-13T08:54:49.393Z,2.40
2017-05-13T08:57:16.097Z,2.50
2017-05-13T08:59:42.791Z,2.36
2017-05-13T09:02:09.656Z,2.14
2017-05-13T09:04:36.429Z,2.24
2017-05-13T09:07:03.205Z,2.60
2017-05-13T09:09:29.918Z,2.36
2017-05-13T09:11:56.612Z,1.90
2017-05-13T09:14:23.328Z,2.46
2017-05-13T09:16:50.014Z,2.30
2017-05-13T09:19:16.746Z,2.20
2017-05-13T09:21:43.454Z,2.50
2017-05-13T09:24:10.182Z,2.60
2017-05-13T09:26:36.894Z,2.62
2017-05-13T09:29:03.591Z,2.70
2017-05-13T09:31:30.285Z,2.12
2017-05-13T09:33:57.729Z,2.18
2017-05-13T09:36:24.486Z,2.12
2017-05-13T09:38:51.963Z,2.68
2017-05-13T09:41:18.700Z,2.34
2017-05-13T09:43:45.478Z,2.32
2017-05-13T09:46:12.196Z,2.32
2017-05-13T09:48:38.889Z,2.34
2017-05-13T09:51:06.352Z,2.60
2017-05-13T09:53:33.790Z,2.40
2017-05-13T09:56:00.493Z,2.24
2017-05-13T09:58:27.223Z,1.98
2017-05-13T10:00:53.923Z,2.54
2017-05-13T10:03:21.385Z,2.20
2017-05-13T10:05:48.096Z,2.44
2017-05-13T10:08:14.780Z,2.80
2017-05-13T10:10:41.509Z,2.82
2017-05-13T10:13:08.216Z,2.82
2017-05-13T10:15:34.943Z,2.70
2017-05-13T10:18:01.654Z,2.48
2017-05-13T10:20:28.366Z,2.80
2017-05-13T10:22:55.821Z,2.60
2017-05-13T10:25:23.267Z,2.52
2017-05-13T10:27:50.730Z,2.64
2017-05-13T10:30:18.178Z,2.66
2017-05-13T10:32:44.963Z,2.46
2017-05-13T10:35:11.722Z,2.30
2017-05-13T10:37:38.410Z,2.90
2017-05-13T10:40:05.917Z,2.80
2017-05-13T10:42:32.610Z,2.20
2017-05-13T10:44:59.352Z,2.32
2017-05-13T10:47:26.822Z,3.40
2017-05-13T10:49:53.526Z,2.52
2017-05-13T10:52:20.333Z,2.86
2017-05-13T10:54:47.046Z,2.54
2017-05-13T10:57:13.765Z,2.90
2017-05-13T10:59:41.248Z,2.78
2017-05-13T11:02:07.950Z,2.60
2017-05-13T11:04:34.701Z,2.32
2017-05-13T11:07:02.128Z,2.58
2017-05-13T11:09:29.590Z,2.68
2017-05-13T11:11:56.295Z,2.60
2017-05-13T11:14:22.994Z,2.00
2017-05-13T11:16:49.794Z,2.64
2017-05-13T11:19:16.535Z,2.70
2017-05-13T11:21:43.233Z,3.12
2017-05-13T11:24:09.923Z,2.72
2017-05-13T11:26:36.609Z,2.62
2017-05-13T11:29:03.330Z,2.20
2017-05-13T11:31:30.034Z,2.38
2017-05-13T11:33:56.722Z,2.52
2017-05-13T11:36:38.568Z,2.24
2017-05-13T11:39:05.257Z,2.10
2017-05-13T11:41:31.994Z,2.44
2017-05-13T11:43:58.725Z,2.30
2017-05-13T11:46:26.142Z,2.68
2017-05-13T11:48:52.830Z,2.40
2017-05-13T11:51:19.511Z,2.36
2017-05-13T11:53:46.198Z,2.60
2017-05-13T11:56:12.901Z,2.72
2017-05-13T11:58:39.584Z,2.72
2017-05-13T12:01:06.278Z,2.70
2017-05-13T12:03:32.966Z,2.98
2017-05-13T12:05:59.690Z,2.46
2017-05-13T12:08:26.416Z,3.10
2017-05-13T12:10:53.121Z,2.90
2017-05-13T12:13:19.937Z,2.86
2017-05-13T12:15:46.626Z,2.50
2017-05-13T12:18:13.342Z,2.36
2017-05-13T12:20:40.058Z,2.52
2017-05-13T12:23:06.735Z,2.76
2017-05-13T12:25:33.421Z,2.86
2017-05-13T12:28:00.106Z,2.70
2017-05-13T12:30:26.829Z,3.38
2017-05-13T12:32:53.514Z,2.70
2017-05-13T12:35:20.190Z,2.74
2017-05-13T12:37:46.894Z,2.60
2017-05-13T12:40:14.434Z,2.72
2017-05-13T12:42:41.141Z,3.08
2017-05-13T12:45:07.838Z,2.64
2017-05-13T12:47:35.257Z,2.48
2017-05-13T12:50:01.974Z,2.22
2017-05-13T12:52:28.738Z,2.28
2017-05-13T12:54:55.442Z,2.42
2017-05-13T12:57:22.150Z,2.50
2017-05-13T12:59:49.586Z,2.26
2017-05-13T13:02:16.281Z,2.88
2017-05-13T13:04:42.954Z,2.26
2017-05-13T13:07:09.675Z,2.12
2017-05-13T13:09:36.381Z,2.88
2017-05-13T13:12:03.066Z,2.38
2017-05-13T13:14:29.758Z,2.38
2017-05-13T13:16:56.439Z,2.68
2017-05-13T13:19:23.211Z,2.64
2017-05-13T13:21:49.895Z,2.30
2017-05-13T13:24:16.569Z,2.20
2017-05-13T13:26:43.254Z,2.30
2017-05-13T13:29:09.934Z,2.30
2017-05-13T13:31:36.630Z,2.30
2017-05-13T13:34:03.313Z,2.24
2017-05-13T13:36:29.997Z,1.96
2017-05-13T13:38:56.695Z,2.40
2017-05-13T13:41:23.407Z,1.96
2017-05-13T13:43:50.113Z,1.96
2017-05-13T13:46:16.782Z,2.10
2017-05-13T13:48:43.471Z,1.84
2017-05-13T13:51:10.259Z,2.28
2017-05-13T13:53:36.974Z,2.20
2017-05-13T13:56:03.698Z,2.42
2017-05-13T13:58:30.379Z,2.40
2017-05-13T14:00:57.106Z,2.34
2017-05-13T14:03:23.801Z,2.28
2017-05-13T14:05:50.489Z,1.90
2017-05-13T14:08:17.206Z,2.40
2017-05-13T14:10:44.071Z,2.10
2017-05-13T14:13:10.765Z,1.96
2017-05-13T14:15:38.218Z,2.22
2017-05-13T14:18:05.038Z,2.38
2017-05-13T14:20:31.766Z,2.02
2017-05-13T14:22:58.460Z,1.90
2017-05-13T14:25:25.147Z,2.18
2017-05-13T14:27:51.885Z,1.78
2017-05-13T14:30:18.578Z,2.20
2017-05-13T14:32:45.550Z,2.30
2017-05-13T14:35:12.259Z,1.92
2017-05-13T14:37:39.006Z,1.98
2017-05-13T14:40:05.770Z,1.94
2017-05-13T14:42:32.514Z,1.76
2017-05-13T14:44:59.210Z,1.88
2017-05-13T14:47:25.903Z,2.06
2017-05-13T14:49:52.649Z,2.60
2017-05-13T14:52:19.334Z,1.86
2017-05-13T14:54:46.050Z,1.78
2017-05-13T14:57:12.757Z,1.90
2017-05-13T14:59:39.497Z,1.66
2017-05-13T15:02:06.185Z,1.98
2017-05-13T15:04:33.606Z,1.96
2017-05-13T15:07:00.309Z,2.08
2017-05-13T15:09:27.010Z,2.00
2017-05-13T15:11:53.722Z,1.82
2017-05-13T15:14:20.427Z,2.34
2017-05-13T15:16:47.290Z,2.18
2017-05-13T15:19:14.031Z,1.96
2017-05-13T15:21:40.746Z,2.04
2017-05-13T15:24:07.466Z,1.54
2017-05-13T15:26:34.172Z,1.86
2017-05-13T15:29:00.900Z,1.80
2017-05-13T15:31:27.598Z,1.44
2017-05-13T15:33:54.309Z,1.50
2017-05-13T15:36:21.013Z,2.00
2017-05-13T15:38:47.726Z,1.26
2017-05-13T15:41:14.462Z,1.60
2017-05-13T15:43:41.163Z,1.66
2017-05-13T15:46:08.618Z,1.66
2017-05-13T15:48:35.326Z,1.64
2017-05-13T15:51:02.028Z,1.74
2017-05-13T15:53:28.734Z,1.72
2017-05-13T15:55:55.480Z,1.82
2017-05-13T15:58:22.237Z,1.50
2017-05-13T16:00:48.979Z,1.56
2017-05-13T16:03:16.113Z,1.54
2017-05-13T16:05:42.894Z,1.50
2017-05-13T16:08:09.574Z,1.72
2017-05-13T16:10:36.322Z,1.24
2017-05-13T16:13:03.009Z,1.78
2017-05-13T16:15:29.686Z,1.44
2017-05-13T16:17:56.478Z,1.82
2017-05-13T16:20:23.212Z,1.42
2017-05-13T16:22:49.955Z,1.58
2017-05-13T16:25:16.650Z,1.66
2017-05-13T16:27:43.350Z,1.60
2017-05-13T16:30:10.450Z,1.48
2017-05-13T16:32:37.190Z,1.46
2017-05-13T16:35:04.623Z,1.36
2017-05-13T16:37:31.354Z,1.62
2017-05-13T16:39:58.038Z,2.02
2017-05-13T16:42:25.494Z,2.58
2017-05-13T16:44:52.941Z,2.30
2017-05-13T16:47:20.375Z,2.28
2017-05-13T16:49:47.078Z,2.20
2017-05-13T16:52:13.782Z,2.04
2017-05-13T16:54:41.270Z,2.20
2017-05-13T16:57:07.963Z,1.92
2017-05-13T16:59:34.649Z,2.14
2017-05-13T17:02:01.357Z,2.20
2017-05-13T17:04:28.785Z,1.90
2017-05-13T17:06:55.481Z,1.98
2017-05-13T17:09:22.162Z,1.84
2017-05-13T17:11:48.885Z,1.86
2017-05-13T17:14:15.566Z,1.94
2017-05-13T17:16:42.258Z,1.88
2017-05-13T17:19:08.955Z,1.90
2017-05-13T17:21:36.383Z,1.52
2017-05-13T17:24:03.074Z,1.66
2017-05-13T17:26:29.777Z,1.70
2017-05-13T17:28:57.247Z,1.52
2017-05-13T17:31:24.673Z,1.90
2017-05-13T17:33:51.353Z,1.62
2017-05-13T17:36:18.051Z,1.72
2017-05-13T17:38:44.722Z,1.98
2017-05-13T17:41:12.174Z,1.80
2017-05-13T17:43:39.590Z,1.90
2017-05-13T17:46:06.303Z,1.94
2017-05-13T17:48:33.026Z,1.94
2017-05-13T17:50:59.706Z,1.86
2017-05-13T17:53:26.398Z,1.80
2017-05-13T17:55:53.078Z,1.82
2017-05-13T17:58:19.777Z,2.02
2017-05-13T18:00:46.475Z,2.00
2017-05-13T18:03:13.162Z,1.84
2017-05-13T18:05:39.842Z,2.30
2017-05-13T18:08:06.561Z,2.10
2017-05-13T18:10:33.250Z,1.90
2017-05-13T18:12:59.926Z,1.90
2017-05-13T18:15:26.623Z,2.26
2017-05-13T18:17:54.041Z,2.00
2017-05-13T18:20:20.815Z,1.96
2017-05-13T18:22:47.493Z,1.78
2017-05-13T18:25:14.214Z,1.70
2017-05-13T18:27:41.642Z,1.98
2017-05-13T18:30:08.335Z,2.56
2017-05-13T18:32:35.038Z,2.40
2017-05-13T18:35:01.734Z,1.70
2017-05-13T18:37:28.426Z,1.80
2017-05-13T18:39:55.878Z,1.74
2017-05-13T18:42:22.608Z,1.74
2017-05-13T18:44:50.034Z,2.32
2017-05-13T18:47:16.719Z,2.22
2017-05-13T18:49:43.422Z,2.34
2017-05-13T18:52:10.128Z,2.10
2017-05-13T18:54:36.851Z,1.80
2017-05-13T18:57:03.554Z,1.94
2017-05-13T18:59:30.253Z,2.24
2017-05-13T19:01:56.958Z,2.22
2017-05-13T19:04:23.654Z,2.02
2017-05-13T19:06:50.367Z,2.68
2017-05-13T19:09:17.082Z,2.62
2017-05-13T19:11:43.797Z,2.88
2017-05-13T19:14:11.222Z,2.08
2017-05-13T19:16:37.913Z,2.04
2017-05-13T19:19:04.614Z,2.40
2017-05-13T19:21:31.312Z,2.22
2017-05-13T19:23:58.051Z,1.80
2017-05-13T19:26:24.735Z,1.88
2017-05-13T19:28:51.449Z,2.20
2017-05-13T19:31:18.148Z,1.70
2017-05-13T19:33:44.938Z,1.80
2017-05-13T19:36:11.630Z,2.06
2017-05-13T19:38:38.313Z,2.32
2017-05-13T19:41:05.027Z,2.20
2017-05-13T19:43:31.722Z,2.20
2017-05-13T19:45:59.182Z,1.96
2017-05-13T19:48:26.616Z,2.04
2017-05-13T19:50:53.298Z,2.10
2017-05-13T19:53:20.002Z,1.80
2017-05-13T19:55:46.678Z,1.80
2017-05-13T19:58:13.382Z,2.34
2017-05-13T20:00:40.094Z,1.80
2017-05-13T20:03:06.831Z,1.60
2017-05-13T20:05:33.514Z,2.02
2017-05-13T20:08:00.201Z,2.50
2017-05-13T20:10:26.898Z,2.24
2017-05-13T20:12:53.623Z,2.08
2017-05-13T20:15:23.111Z,2.28
2017-05-13T20:17:49.853Z,2.46
2017-05-13T20:20:16.545Z,2.20
2017-05-13T20:22:43.242Z,2.30
2017-05-13T20:25:10.019Z,2.68
2017-05-13T20:27:36.724Z,2.48
2017-05-13T20:30:04.162Z,2.24
2017-05-13T20:32:30.842Z,2.70
2017-05-13T20:34:57.539Z,2.42
2017-05-13T20:37:24.229Z,2.58
2017-05-13T20:39:50.930Z,2.94
2017-05-13T20:42:18.402Z,3.00
2017-05-13T20:44:45.108Z,2.72
2017-05-13T20:47:11.785Z,2.96
2017-05-13T20:49:38.643Z,3.18
2017-05-13T20:52:05.329Z,2.96
2017-05-13T20:54:32.010Z,3.72
2017-05-13T20:56:58.738Z,2.88
2017-05-13T20:59:25.432Z,2.90
2017-05-13T21:01:52.158Z,2.98
2017-05-13T21:04:18.833Z,2.28
2017-05-13T21:06:45.517Z,2.46
2017-05-13T21:09:12.367Z,2.70
2017-05-13T21:11:39.047Z,2.52
2017-05-13T21:14:05.846Z,2.66
2017-05-13T21:16:32.553Z,2.48
2017-05-13T21:19:00.029Z,2.50
2017-05-13T21:21:26.726Z,2.78
2017-05-13T21:23:53.498Z,2.36
2017-05-13T21:26:20.202Z,2.46
2017-05-13T21:28:46.914Z,2.70
2017-05-13T21:31:13.606Z,2.54
2017-05-13T21:33:41.028Z,2.36
2017-05-13T21:36:07.742Z,2.66
2017-05-13T21:38:34.466Z,3.20
2017-05-13T21:41:01.159Z,2.60
2017-05-13T21:43:27.862Z,3.22
2017-05-13T21:45:54.547Z,2.70
2017-05-13T21:48:22.003Z,2.40
2017-05-13T21:50:49.467Z,2.76
2017-05-13T21:53:16.898Z,2.80
2017-05-13T21:55:43.585Z,2.80
2017-05-13T21:58:10.307Z,2.82
2017-05-13T22:00:37.858Z,3.08
2017-05-13T22:03:04.559Z,2.80
2017-05-13T22:05:31.282Z,2.64
2017-05-13T22:07:58.007Z,3.14
2017-05-13T22:10:24.686Z,3.20
2017-05-13T22:12:51.413Z,2.70
2017-05-13T22:15:18.132Z,2.68
2017-05-13T22:17:44.836Z,2.86
2017-05-13T22:20:12.296Z,3.06
2017-05-13T22:22:39.041Z,3.52
2017-05-13T22:25:06.486Z,2.92
2017-05-13T22:27:33.202Z,3.20
2017-05-13T22:29:59.893Z,2.90
2017-05-13T22:32:26.600Z,2.30
2017-05-13T22:34:54.034Z,2.52
2017-05-13T22:37:20.749Z,2.80
2017-05-13T22:39:47.437Z,2.90
2017-05-13T22:42:14.134Z,2.88
2017-05-13T22:44:40.829Z,2.64
2017-05-13T22:47:07.525Z,2.70
2017-05-13T22:49:34.243Z,2.30
2017-05-13T22:52:01.042Z,2.48
2017-05-13T22:54:27.747Z,2.94
2017-05-13T22:56:54.456Z,2.94
2017-05-13T22:59:21.197Z,2.90
2017-05-13T23:01:47.919Z,2.78
2017-05-13T23:04:14.622Z,3.04
2017-05-13T23:06:41.322Z,2.72
2017-05-13T23:09:08.036Z,3.28
2017-05-13T23:11:34.722Z,2.20
2017-05-13T23:14:01.431Z,2.38
2017-05-13T23:16:28.127Z,2.74
2017-05-13T23:18:54.810Z,2.58
2017-05-13T23:21:21.534Z,2.50
2017-05-13T23:23:49.015Z,2.02
2017-05-13T23:26:15.718Z,2.22
2017-05-13T23:28:42.397Z,2.14
2017-05-13T23:31:09.139Z,2.18
2017-05-13T23:33:35.902Z,2.20
2017-05-13T23:36:02.618Z,1.96
2017-05-13T23:38:29.332Z,2.18
2017-05-13T23:40:56.055Z,2.16
2017-05-13T23:43:22.751Z,2.12
2017-05-13T23:45:49.442Z,1.90
2017-05-13T23:48:16.130Z,2.28
2017-05-13T23:50:42.826Z,2.10
2017-05-13T23:53:09.511Z,2.12
2017-05-13T23:55:36.202Z,2.06
2017-05-13T23:58:02.886Z,2.02
